Time;durP1;ratioP1;P1;durP2;ratioP2;P2;SDS_P1;SDS_P2;PMS_P1;PMS_P2;Temp;Humidity;BMP_temperature;BMP_pressure;BME280_temperature;BME280_humidity;BME280_pressure;Samples;Min_cycle;Max_cycle;Signal;HPM_P1;HPM_P2
2021/06/07 00:01:01;;;;;;;12.13;8.82;;;16.30;99.10;;;;;;5133327;27;20640;-54
2021/06/07 00:03:27;;;;;;;12.68;8.30;;;16.30;99.40;;;;;;5134138;27;20721;-55
2021/06/07 00:05:53;;;;;;;17.20;9.05;;;16.30;99.60;;;;;;5132263;27;20191;-54
2021/06/07 00:08:21;;;;;;;12.52;9.82;;;16.30;99.60;;;;;;5133012;27;20573;-53
2021/06/07 00:10:47;;;;;;;13.10;8.73;;;16.20;99.50;;;;;;5133130;28;20172;-54
2021/06/07 00:13:13;;;;;;;14.45;9.18;;;16.20;99.70;;;;;;5132547;28;20175;-52
2021/06/07 00:15:39;;;;;;;15.23;9.30;;;16.30;99.90;;;;;;5133175;28;20172;-54
2021/06/07 00:18:05;;;;;;;14.50;9.35;;;16.20;99.80;;;;;;5132948;28;20187;-55
2021/06/07 00:20:40;;;;;;;17.17;8.85;;;16.20;99.90;;;;;;5132520;28;20194;-55
2021/06/07 00:23:09;;;;;;;15.05;9.13;;;16.20;99.90;;;;;;5131797;28;20186;-54
2021/06/07 00:25:35;;;;;;;15.18;9.20;;;16.10;99.90;;;;;;5097835;28;20187;-49
2021/06/07 00:28:02;;;;;;;15.43;11.00;;;16.10;99.90;;;;;;5132031;28;20543;-53
2021/06/07 00:30:28;;;;;;;12.68;8.25;;;16.10;99.90;;;;;;5132694;28;20172;-52
2021/06/07 00:32:54;;;;;;;15.10;11.55;;;16.00;99.90;;;;;;5132968;28;20195;-54
2021/06/07 00:35:24;;;;;;;21.80;10.77;;;16.00;99.90;;;;;;5132147;28;20207;-54
2021/06/07 00:37:50;;;;;;;14.55;9.98;;;16.00;99.90;;;;;;5132669;28;20207;-54
2021/06/07 00:40:16;;;;;;;15.75;10.45;;;16.00;99.90;;;;;;5113404;28;20184;-52
2021/06/07 00:42:43;;;;;;;17.35;11.18;;;16.00;99.90;;;;;;5097616;28;20185;-52
2021/06/07 00:45:11;;;;;;;15.93;9.02;;;16.00;99.90;;;;;;5132650;28;20562;-52
2021/06/07 00:47:37;;;;;;;15.60;10.68;;;15.90;99.90;;;;;;5114316;28;20605;-50
2021/06/07 00:50:07;;;;;;;18.70;10.57;;;15.90;99.90;;;;;;5114038;28;20179;-54
2021/06/07 00:52:33;;;;;;;15.85;10.23;;;15.90;99.90;;;;;;5131343;28;20524;-55
2021/06/07 00:54:59;;;;;;;15.88;10.00;;;15.80;99.90;;;;;;5132201;28;20628;-55
2021/06/07 00:57:25;;;;;;;12.13;8.70;;;15.80;99.90;;;;;;5132048;28;20220;-55
2021/06/07 00:59:51;;;;;;;20.30;11.15;;;15.70;99.90;;;;;;5113287;28;20679;-51
2021/06/07 01:02:17;;;;;;;16.08;10.40;;;15.70;99.90;;;;;;5114173;28;20632;-52
2021/06/07 01:04:44;;;;;;;14.95;8.93;;;15.60;99.90;;;;;;5114416;28;20168;-55
2021/06/07 01:07:09;;;;;;;;;;;15.60;99.90;;;;;;5113397;28;20184;-53
2021/06/07 01:09:35;;;;;;;;;;;15.60;99.90;;;;;;5125005;28;19922;-53
2021/06/07 01:12:02;;;;;;;16.70;9.45;;;15.50;99.90;;;;;;5132343;28;20026;-52
2021/06/07 01:14:28;;;;;;;13.57;9.63;;;15.60;99.90;;;;;;5132162;28;20171;-52
2021/06/07 01:16:54;;;;;;;16.20;9.93;;;15.60;99.90;;;;;;5133470;27;20230;-54
2021/06/07 01:19:20;;;;;;;15.07;10.35;;;15.60;99.90;;;;;;5113592;27;20172;-54
2021/06/07 01:21:46;;;;;;;16.50;10.05;;;15.50;99.90;;;;;;5100628;27;20176;-54
2021/06/07 01:24:12;;;;;;;18.00;10.30;;;15.50;99.90;;;;;;5100743;27;20175;-51
2021/06/07 01:26:38;;;;;;;14.27;9.50;;;15.50;99.90;;;;;;5132436;27;20172;-52
2021/06/07 01:29:04;;;;;;;17.75;10.55;;;15.50;99.90;;;;;;5135616;27;20180;-55
2021/06/07 01:31:30;;;;;;;22.08;11.25;;;15.50;99.90;;;;;;5135907;27;20207;-53
2021/06/07 01:33:57;;;;;;;16.67;10.30;;;15.50;99.90;;;;;;5135870;27;20216;-52
2021/06/07 01:36:23;;;;;;;15.65;11.95;;;15.50;99.90;;;;;;5135717;27;20573;-55
2021/06/07 01:38:49;;;;;;;18.17;10.25;;;15.40;99.90;;;;;;5135632;27;20640;-50
2021/06/07 01:41:16;;;;;;;14.13;10.35;;;15.50;99.90;;;;;;5135306;27;20195;-53
2021/06/07 01:43:43;;;;;;;20.05;10.10;;;15.50;99.90;;;;;;5117064;27;20175;-53
2021/06/07 01:46:09;;;;;;;17.45;12.30;;;15.50;99.90;;;;;;5134520;27;20192;-53
2021/06/07 01:48:35;;;;;;;13.48;9.73;;;15.50;99.90;;;;;;5134814;27;20183;-52
2021/06/07 01:51:03;;;;;;;16.25;10.70;;;15.50;99.90;;;;;;5131305;27;20192;-54
2021/06/07 01:53:30;;;;;;;17.67;11.50;;;15.50;99.90;;;;;;5115714;27;20196;-53
2021/06/07 01:55:59;;;;;;;21.27;10.43;;;15.50;99.90;;;;;;5134641;27;20175;-52
2021/06/07 01:58:25;;;;;;;15.20;9.35;;;15.50;99.90;;;;;;5135394;27;20168;-52
2021/06/07 02:00:58;;;;;;;20.00;9.90;;;15.50;99.90;;;;;;5116383;27;20179;-53
2021/06/07 02:03:25;;;;;;;17.70;10.77;;;15.50;99.90;;;;;;5127947;27;20217;-53
2021/06/07 02:05:56;;;;;;;15.82;12.07;;;15.50;99.90;;;;;;5135446;27;20168;-55
2021/06/07 02:08:22;;;;;;;17.05;10.95;;;15.50;99.90;;;;;;5134498;27;20179;-53
2021/06/07 02:10:57;;;;;;;17.67;11.45;;;15.50;99.90;;;;;;5134521;27;20176;-55
2021/06/07 02:13:23;;;;;;;16.17;10.98;;;15.50;99.90;;;;;;5114730;27;20188;-54
2021/06/07 02:15:54;;;;;;;15.77;10.75;;;15.50;99.90;;;;;;5133587;27;20168;-52
2021/06/07 02:18:20;;;;;;;17.17;11.00;;;15.50;99.90;;;;;;5132673;27;20207;-53
2021/06/07 02:20:47;;;;;;;15.23;11.48;;;15.50;99.90;;;;;;5141556;27;20178;-56
2021/06/07 02:23:13;;;;;;;13.73;10.10;;;15.40;99.90;;;;;;5142324;27;20175;-53
2021/06/07 02:25:39;;;;;;;16.20;11.63;;;15.40;99.90;;;;;;5140244;27;20179;-54
2021/06/07 02:28:16;;;;;;;15.98;10.98;;;15.40;99.90;;;;;;5138475;27;20199;-58
2021/06/07 02:30:42;;;;;;;17.35;12.50;;;15.40;99.90;;;;;;5144656;27;20163;-52
2021/06/07 02:33:08;;;;;;;17.17;11.82;;;15.40;99.90;;;;;;5117489;27;20515;-52
2021/06/07 02:35:34;;;;;;;22.67;11.82;;;15.40;99.90;;;;;;5115615;27;20184;-52
2021/06/07 02:38:01;;;;;;;16.80;11.77;;;15.40;99.90;;;;;;5134415;27;20581;-54
2021/06/07 02:40:29;;;;;;;19.27;11.55;;;15.40;99.90;;;;;;5115844;27;20183;-53
2021/06/07 02:42:56;;;;;;;19.58;12.23;;;15.40;99.90;;;;;;5133426;27;20179;-54
2021/06/07 02:45:23;;;;;;;16.58;11.35;;;15.40;99.90;;;;;;5134692;27;20196;-51
2021/06/07 02:47:50;;;;;;;19.83;12.30;;;15.50;99.90;;;;;;5134325;27;20180;-54
2021/06/07 02:50:19;;;;;;;19.55;12.38;;;15.40;99.90;;;;;;5133183;27;20176;-54
2021/06/07 02:52:49;;;;;;;18.50;11.75;;;15.40;99.90;;;;;;5134557;27;20175;-51
2021/06/07 02:55:22;;;;;;;20.40;11.45;;;15.40;99.90;;;;;;5133296;27;21718;-51
2021/06/07 02:57:49;;;;;;;17.23;11.10;;;15.40;99.90;;;;;;5133737;27;20207;-51
2021/06/07 03:00:17;;;;;;;14.93;11.00;;;15.40;99.90;;;;;;5133557;27;20635;-51
2021/06/07 03:02:44;;;;;;;19.95;10.95;;;15.40;99.90;;;;;;5134279;27;20199;-51
2021/06/07 03:05:10;;;;;;;22.50;13.38;;;15.40;99.90;;;;;;5132952;27;20188;-53
2021/06/07 03:07:36;;;;;;;18.45;12.43;;;15.40;99.90;;;;;;5133437;27;20191;-53
2021/06/07 03:10:06;;;;;;;21.80;13.45;;;15.40;99.90;;;;;;5134171;27;20188;-52
2021/06/07 03:12:33;;;;;;;17.33;12.55;;;15.40;99.90;;;;;;5133324;27;20188;-51
2021/06/07 03:14:59;;;;;;;18.50;12.85;;;15.50;99.90;;;;;;5133660;27;20172;-54
2021/06/07 03:17:25;;;;;;;17.80;12.82;;;15.50;99.90;;;;;;5133238;27;20216;-53
2021/06/07 03:19:51;;;;;;;15.50;11.27;;;15.50;99.90;;;;;;5133761;27;20176;-50
2021/06/07 03:22:22;;;;;;;17.23;12.17;;;15.50;99.90;;;;;;5133017;27;20546;-52
2021/06/07 03:24:48;;;;;;;21.20;12.63;;;15.50;99.90;;;;;;5133719;27;20191;-54
2021/06/07 03:27:15;;;;;;;26.35;12.70;;;15.50;99.90;;;;;;5132713;27;20171;-52
2021/06/07 03:29:41;;;;;;;17.55;12.90;;;15.50;99.90;;;;;;5132249;27;20658;-53
2021/06/07 03:32:08;;;;;;;18.58;12.43;;;15.60;99.90;;;;;;5133155;27;20175;-51
2021/06/07 03:34:34;;;;;;;16.88;11.82;;;15.60;99.90;;;;;;5133609;27;20220;-54
2021/06/07 03:37:00;;;;;;;16.27;12.13;;;15.60;99.90;;;;;;5132847;27;20204;-51
2021/06/07 03:39:26;;;;;;;16.33;12.57;;;15.60;99.90;;;;;;5132287;27;20179;-51
2021/06/07 03:41:52;;;;;;;17.13;13.10;;;15.70;99.90;;;;;;5133555;27;20180;-51
2021/06/07 03:44:18;;;;;;;27.92;13.25;;;15.70;99.90;;;;;;5132566;27;20207;-51
2021/06/07 03:46:44;;;;;;;18.38;13.05;;;15.70;99.90;;;;;;5132882;27;20535;-51
2021/06/07 03:49:11;;;;;;;18.17;13.80;;;15.70;99.90;;;;;;5133246;27;20522;-55
2021/06/07 03:51:37;;;;;;;17.67;13.23;;;15.70;99.90;;;;;;5132119;27;20531;-55
2021/06/07 03:54:03;;;;;;;19.70;12.77;;;15.80;99.90;;;;;;5113241;27;20194;-54
2021/06/07 03:56:29;;;;;;;20.90;13.80;;;15.80;99.90;;;;;;5132608;27;20187;-51
2021/06/07 03:58:55;;;;;;;22.25;15.10;;;15.80;99.90;;;;;;5133258;27;20198;-56
2021/06/07 04:01:21;;;;;;;20.70;14.27;;;15.80;99.90;;;;;;5132962;27;20172;-51
2021/06/07 04:03:47;;;;;;;21.08;13.70;;;15.80;99.90;;;;;;5133391;27;20194;-54
2021/06/07 04:06:16;;;;;;;22.83;14.70;;;15.90;99.90;;;;;;5132890;27;20476;-53
2021/06/07 04:08:43;;;;;;;22.27;13.52;;;15.90;99.90;;;;;;5132402;27;20172;-55
2021/06/07 04:11:10;;;;;;;24.38;14.13;;;15.90;99.90;;;;;;5114416;28;20172;-53
2021/06/07 04:13:37;;;;;;;21.30;14.00;;;16.00;99.90;;;;;;5133459;28;20527;-53
2021/06/07 04:16:04;;;;;;;22.33;13.68;;;16.00;99.90;;;;;;5133273;28;20530;-53
2021/06/07 04:18:31;;;;;;;18.90;13.98;;;16.00;99.90;;;;;;5133266;28;20202;-53
2021/06/07 04:20:57;;;;;;;17.45;14.05;;;16.10;99.90;;;;;;5132549;28;20164;-51
2021/06/07 04:23:23;;;;;;;20.55;13.95;;;16.20;99.90;;;;;;5133047;28;20647;-53
2021/06/07 04:25:50;;;;;;;24.85;14.50;;;16.20;99.90;;;;;;5132423;28;20175;-51
2021/06/07 04:28:16;;;;;;;20.33;14.25;;;16.30;99.90;;;;;;5114874;28;20176;-55
2021/06/07 04:30:42;;;;;;;20.33;14.15;;;16.40;99.90;;;;;;5131453;28;20191;-52
2021/06/07 04:33:08;;;;;;;24.10;15.43;;;16.50;99.90;;;;;;5133229;28;20180;-54
2021/06/07 04:35:34;;;;;;;22.80;15.77;;;16.70;99.90;;;;;;5114804;28;20654;-52
2021/06/07 04:38:00;;;;;;;32.95;19.02;;;16.90;99.90;;;;;;5133522;28;20223;-54
2021/06/07 04:40:34;;;;;;;35.17;18.92;;;17.00;99.90;;;;;;5133341;28;20620;-53
2021/06/07 04:43:01;;;;;;;31.67;18.13;;;17.10;99.90;;;;;;5115538;28;20180;-51
2021/06/07 04:45:27;;;;;;;27.02;16.50;;;17.10;99.90;;;;;;5133292;28;20211;-50
2021/06/07 04:47:54;;;;;;;30.13;16.75;;;17.10;99.90;;;;;;5114869;28;20594;-52
2021/06/07 04:50:21;;;;;;;19.33;11.38;;;17.10;99.90;;;;;;5133299;27;20172;-53
2021/06/07 04:53:02;;;;;;;14.85;9.93;;;16.80;99.90;;;;;;5136263;27;20656;-53
2021/06/07 04:55:42;;;;;;;19.13;11.43;;;16.50;99.90;;;;;;5140027;27;20168;-56
2021/06/07 04:58:16;;;;;;;18.92;11.30;;;16.20;99.90;;;;;;5135631;27;20223;-56
2021/06/07 05:00:44;;;;;;;21.67;12.05;;;16.20;99.90;;;;;;5135601;27;20759;-55
2021/06/07 05:03:10;;;;;;;20.38;11.63;;;16.20;99.90;;;;;;5135919;27;20192;-55
2021/06/07 05:05:36;;;;;;;19.88;10.57;;;16.20;99.90;;;;;;5136279;27;20183;-56
2021/06/07 05:08:03;;;;;;;19.33;11.98;;;16.10;99.90;;;;;;5136211;27;20191;-55
2021/06/07 05:10:29;;;;;;;16.88;12.75;;;16.00;99.90;;;;;;5118108;27;20183;-53
2021/06/07 05:12:55;;;;;;;18.42;11.52;;;16.00;99.90;;;;;;5137059;27;20647;-52
2021/06/07 05:15:21;;;;;;;17.92;10.85;;;16.00;99.90;;;;;;5136714;27;20172;-52
2021/06/07 05:17:47;;;;;;;18.35;12.38;;;16.00;99.90;;;;;;5136925;27;20214;-54
2021/06/07 05:20:16;;;;;;;16.02;11.38;;;16.00;99.90;;;;;;5136675;27;20168;-55
2021/06/07 05:22:42;;;;;;;18.08;9.73;;;16.00;99.90;;;;;;5136954;27;20762;-56
2021/06/07 05:25:09;;;;;;;16.73;10.55;;;16.00;99.90;;;;;;5136047;27;20184;-52
2021/06/07 05:27:35;;;;;;;16.88;10.38;;;16.00;99.90;;;;;;5117742;27;20195;-52
2021/06/07 05:30:02;;;;;;;19.40;10.20;;;16.00;99.90;;;;;;5136232;27;20212;-52
2021/06/07 05:32:28;;;;;;;17.55;12.15;;;16.00;99.90;;;;;;5136064;27;20200;-54
2021/06/07 05:34:54;;;;;;;15.13;9.50;;;16.10;99.90;;;;;;5135920;27;20223;-53
2021/06/07 05:37:21;;;;;;;29.98;12.00;;;16.10;99.90;;;;;;5136391;27;20571;-54
2021/06/07 05:39:50;;;;;;;14.73;9.95;;;16.10;99.90;;;;;;5121970;27;20178;-53
2021/06/07 05:42:17;;;;;;;14.60;9.25;;;16.20;99.90;;;;;;5141296;27;20171;-54
2021/06/07 05:44:43;;;;;;;13.93;9.48;;;16.20;99.90;;;;;;5121688;27;20655;-56
2021/06/07 05:47:09;;;;;;;15.40;9.88;;;16.10;99.90;;;;;;5144856;27;20241;-55
2021/06/07 05:49:38;;;;;;;15.13;9.60;;;16.10;99.90;;;;;;5146202;27;20175;-55
2021/06/07 05:52:06;;;;;;;14.23;9.70;;;16.10;99.90;;;;;;5136893;27;20623;-56
2021/06/07 05:54:33;;;;;;;13.43;9.65;;;16.10;99.90;;;;;;5118323;27;20656;-55
2021/06/07 05:56:59;;;;;;;19.38;11.63;;;16.10;99.90;;;;;;5117721;27;20183;-54
2021/06/07 05:59:25;;;;;;;25.10;12.45;;;16.00;99.90;;;;;;5118002;27;20164;-57
2021/06/07 06:01:51;;;;;;;18.38;11.77;;;16.00;99.90;;;;;;5130145;27;20172;-57
2021/06/07 06:04:17;;;;;;;16.73;12.07;;;16.00;99.90;;;;;;5150479;27;20192;-57
2021/06/07 06:06:43;;;;;;;17.88;12.15;;;16.00;99.90;;;;;;5157545;27;20163;-57
2021/06/07 06:09:10;;;;;;;19.98;13.13;;;15.90;99.90;;;;;;5147835;27;20174;-55
2021/06/07 06:11:36;;;;;;;18.75;13.02;;;15.90;99.90;;;;;;5129728;27;20196;-57
2021/06/07 06:14:02;;;;;;;23.25;13.68;;;15.90;99.90;;;;;;5117602;27;20277;-55
2021/06/07 06:16:28;;;;;;;20.83;11.35;;;15.90;99.90;;;;;;5146647;27;20176;-57
2021/06/07 06:18:55;;;;;;;18.15;11.70;;;15.90;99.90;;;;;;5124803;27;20219;-55
2021/06/07 06:21:25;;;;;;;15.70;11.32;;;15.90;99.90;;;;;;5140157;27;20163;-54
2021/06/07 06:23:52;;;;;;;20.88;12.20;;;16.00;99.90;;;;;;5144658;27;20515;-54
2021/06/07 06:26:18;;;;;;;20.15;11.38;;;16.00;99.90;;;;;;5136329;27;20180;-54
2021/06/07 06:28:44;;;;;;;18.63;11.52;;;16.10;99.90;;;;;;5135066;27;20172;-55
2021/06/07 06:31:10;;;;;;;19.00;10.70;;;16.10;99.90;;;;;;5133838;27;20651;-55
2021/06/07 06:33:36;;;;;;;19.50;11.52;;;16.20;99.90;;;;;;5134971;27;20207;-54
2021/06/07 06:36:03;;;;;;;24.50;14.57;;;16.30;99.90;;;;;;5134215;27;20180;-52
2021/06/07 06:38:29;;;;;;;28.20;14.40;;;16.40;99.90;;;;;;5134010;27;20204;-54
2021/06/07 06:40:56;;;;;;;24.15;15.75;;;16.50;99.90;;;;;;5134173;27;20184;-57
2021/06/07 06:43:22;;;;;;;24.23;17.92;;;16.60;99.90;;;;;;5134859;27;20172;-55
2021/06/07 06:45:49;;;;;;;40.78;24.73;;;16.70;99.90;;;;;;5115920;27;20199;-55
2021/06/07 06:48:15;;;;;;;41.53;25.63;;;16.80;99.90;;;;;;5130988;27;20180;-56
2021/06/07 06:50:41;;;;;;;;;;;16.80;99.90;;;;;;5134988;27;20017;-55
2021/06/07 06:53:13;;;;;;;42.13;25.80;;;16.90;99.90;;;;;;5137239;27;20327;-53
2021/06/07 06:55:40;;;;;;;45.03;28.63;;;17.00;99.90;;;;;;5125250;27;20824;-52
2021/06/07 06:58:07;;;;;;;45.30;30.15;;;17.10;99.90;;;;;;5133544;27;20717;-53
2021/06/07 07:00:37;;;;;;;48.55;30.83;;;17.10;99.90;;;;;;5133123;27;20191;-55
2021/06/07 07:03:06;;;;;;;48.55;29.85;;;17.20;99.90;;;;;;5116317;27;20187;-51
2021/06/07 07:05:32;;;;;;;42.20;26.30;;;17.20;99.90;;;;;;5134236;27;20176;-55
2021/06/07 07:07:58;;;;;;;45.05;28.00;;;17.10;99.90;;;;;;5134093;27;20187;-53
2021/06/07 07:10:25;;;;;;;34.75;22.80;;;17.10;99.90;;;;;;5133199;27;20508;-51
2021/06/07 07:12:51;;;;;;;34.97;19.73;;;17.10;99.90;;;;;;5115294;27;20180;-55
2021/06/07 07:15:17;;;;;;;34.55;18.27;;;16.90;99.90;;;;;;5133345;27;20194;-55
2021/06/07 07:17:44;;;;;;;24.70;15.63;;;17.00;99.90;;;;;;5132199;27;20591;-53
2021/06/07 07:20:10;;;;;;;26.10;16.38;;;17.00;99.90;;;;;;5133103;27;20500;-52
2021/06/07 07:22:36;;;;;;;26.35;15.57;;;17.00;99.90;;;;;;5133483;27;20175;-56
2021/06/07 07:25:03;;;;;;;24.52;15.10;;;17.10;99.90;;;;;;5114785;27;20658;-56
2021/06/07 07:27:30;;;;;;;27.63;15.15;;;17.00;99.90;;;;;;5133587;27;20655;-52
2021/06/07 07:29:57;;;;;;;25.25;15.65;;;16.90;99.90;;;;;;5133024;27;20172;-54
2021/06/07 07:32:25;;;;;;;22.85;15.45;;;17.10;99.90;;;;;;5125487;27;20187;-55
2021/06/07 07:34:52;;;;;;;28.30;17.63;;;17.00;99.90;;;;;;5132953;27;20211;-53
2021/06/07 07:37:18;;;;;;;26.52;17.50;;;16.80;99.90;;;;;;5133078;27;20172;-55
2021/06/07 07:39:45;;;;;;;23.90;17.25;;;16.60;99.90;;;;;;5133285;27;20184;-55
2021/06/07 07:42:11;;;;;;;31.75;20.00;;;16.70;99.90;;;;;;5132839;27;20531;-52
2021/06/07 07:44:37;;;;;;;32.22;20.58;;;16.70;99.90;;;;;;5114624;27;20265;-54
2021/06/07 07:47:06;;;;;;;32.72;19.95;;;16.70;99.90;;;;;;5133576;27;20174;-53
2021/06/07 07:49:33;;;;;;;31.92;20.95;;;16.60;99.90;;;;;;5129773;27;20190;-52
2021/06/07 07:51:59;;;;;;;31.08;20.00;;;16.50;99.90;;;;;;5130858;27;20179;-53
2021/06/07 07:54:25;;;;;;;27.42;19.17;;;16.50;99.90;;;;;;5131750;27;20658;-52
2021/06/07 07:56:51;;;;;;;32.72;20.80;;;16.30;99.90;;;;;;5125463;27;20184;-57
2021/06/07 07:59:18;;;;;;;30.17;19.55;;;16.30;99.90;;;;;;5131701;27;20211;-51
2021/06/07 08:01:44;;;;;;;30.58;19.50;;;16.30;99.90;;;;;;5132138;27;20196;-52
2021/06/07 08:04:10;;;;;;;28.73;22.27;;;16.30;99.90;;;;;;5132974;27;20180;-55
2021/06/07 08:06:36;;;;;;;32.45;19.08;;;16.40;99.90;;;;;;5133133;27;20237;-53
2021/06/07 08:09:02;;;;;;;32.72;20.13;;;16.30;99.90;;;;;;5114263;28;20667;-55
2021/06/07 08:11:28;;;;;;;32.28;17.95;;;16.40;99.90;;;;;;5132407;27;20585;-55
2021/06/07 08:13:54;;;;;;;23.95;15.50;;;16.30;99.90;;;;;;5136029;27;20659;-70
2021/06/07 08:16:20;;;;;;;21.40;14.73;;;16.20;99.90;;;;;;5113507;28;20192;-53
2021/06/07 08:18:47;;;;;;;21.23;14.45;;;16.20;99.90;;;;;;5134830;27;20575;-51
2021/06/07 08:21:13;;;;;;;21.77;14.45;;;16.20;99.90;;;;;;5133175;28;20172;-52
2021/06/07 08:23:39;;;;;;;24.48;12.90;;;16.30;99.90;;;;;;5129731;28;20635;-55
2021/06/07 08:26:05;;;;;;;19.35;12.48;;;16.30;99.90;;;;;;5139064;27;20176;-52
2021/06/07 08:28:31;;;;;;;14.88;10.77;;;16.30;99.90;;;;;;5125781;27;20171;-54
2021/06/07 08:30:57;;;;;;;15.40;11.50;;;16.30;99.90;;;;;;5146012;27;20564;-52
2021/06/07 08:33:23;;;;;;;16.33;10.93;;;16.30;99.90;;;;;;5143734;27;20694;-52
2021/06/07 08:35:50;;;;;;;15.27;9.98;;;16.30;99.90;;;;;;5146832;27;20168;-50
2021/06/07 08:38:17;;;;;;;13.57;10.18;;;16.20;99.90;;;;;;5137021;27;20211;-54
2021/06/07 08:40:46;;;;;;;16.05;9.35;;;16.20;99.90;;;;;;5136845;27;20176;-50
2021/06/07 08:43:12;;;;;;;13.68;9.05;;;16.20;99.90;;;;;;5137398;27;20674;-50
2021/06/07 08:45:39;;;;;;;13.68;8.48;;;16.10;99.90;;;;;;5117462;27;20674;-53
2021/06/07 08:48:05;;;;;;;11.95;8.25;;;16.00;99.90;;;;;;5128410;27;20191;-52
2021/06/07 08:50:32;;;;;;;11.40;7.97;;;15.90;99.90;;;;;;5138632;27;20200;-52
2021/06/07 08:52:58;;;;;;;12.95;7.63;;;15.90;99.90;;;;;;5137010;27;20171;-51
2021/06/07 08:55:28;;;;;;;12.85;8.20;;;16.00;99.90;;;;;;5135534;27;20172;-49
2021/06/07 08:57:54;;;;;;;11.95;8.13;;;16.10;99.90;;;;;;5135237;27;20215;-51
2021/06/07 09:00:26;;;;;;;10.00;7.43;;;16.20;99.90;;;;;;5133275;27;20877;-53
2021/06/07 09:03:01;;;;;;;12.07;6.25;;;16.30;99.90;;;;;;5143025;27;20179;-55
2021/06/07 09:05:27;;;;;;;9.73;6.03;;;16.50;99.90;;;;;;5141351;27;20183;-54
2021/06/07 09:07:53;;;;;;;13.30;6.88;;;16.60;99.90;;;;;;5136742;27;20172;-53
2021/06/07 09:10:20;;;;;;;16.13;6.40;;;16.80;99.90;;;;;;5145137;27;20190;-53
2021/06/07 09:12:46;;;;;;;8.45;5.90;;;16.80;99.90;;;;;;5136364;27;20183;-53
2021/06/07 09:15:30;;;;;;;8.35;6.00;;;16.90;99.90;;;;;;5100834;27;20628;-52
2021/06/07 09:17:56;;;;;;;10.57;5.53;;;16.90;99.90;;;;;;5117124;27;20703;-52
2021/06/07 09:20:23;;;;;;;13.52;5.63;;;16.80;99.90;;;;;;5136107;27;20176;-55
2021/06/07 09:22:53;;;;;;;11.95;5.95;;;16.70;99.90;;;;;;5135107;27;20187;-54
2021/06/07 09:25:22;;;;;;;8.60;5.57;;;16.60;99.90;;;;;;5136120;27;20172;-54
2021/06/07 09:28:08;;;;;;;7.47;5.10;;;16.50;99.90;;;;;;5119634;27;20172;-55
2021/06/07 09:30:36;;;;;;;6.22;4.47;;;16.50;99.90;;;;;;5131399;27;20186;-55
2021/06/07 09:33:22;;;;;;;9.73;4.30;;;16.40;99.90;;;;;;5135136;27;20176;-53
2021/06/07 09:36:27;;;;;;;6.75;4.30;;;16.40;99.90;;;;;;5134789;27;20172;-53
2021/06/07 09:39:15;;;;;;;10.95;4.00;;;16.40;99.90;;;;;;5137451;27;20208;-54
2021/06/07 09:41:46;;;;;;;8.10;4.28;;;16.30;99.90;;;;;;5138136;27;20186;-52
2021/06/07 09:44:51;;;;;;;12.00;5.00;;;16.40;99.90;;;;;;5126301;27;20223;-56
2021/06/07 09:47:31;;;;;;;6.47;4.15;;;16.50;99.90;;;;;;5116705;27;20171;-50
2021/06/07 09:49:58;;;;;;;11.10;4.47;;;16.60;99.90;;;;;;5135185;27;20167;-53
2021/06/07 09:52:55;;;;;;;7.65;4.20;;;16.60;99.90;;;;;;5134760;27;20548;-54
2021/06/07 09:55:26;;;;;;;8.65;4.30;;;16.50;99.90;;;;;;5130559;27;20169;-54
2021/06/07 09:57:57;;;;;;;9.07;4.05;;;16.30;99.90;;;;;;5129781;27;20203;-54
2021/06/07 10:00:42;;;;;;;4.28;3.28;;;16.30;99.90;;;;;;5131764;27;20172;-56
2021/06/07 10:03:39;;;;;;;6.80;4.32;;;16.30;99.90;;;;;;5135148;27;20199;-56
2021/06/07 10:06:21;;;;;;;4.95;3.10;;;16.40;99.90;;;;;;5135450;27;20172;-57
2021/06/07 10:08:59;;;;;;;5.03;3.53;;;16.60;99.90;;;;;;5134103;27;20172;-52
2021/06/07 10:11:27;;;;;;;4.88;2.70;;;16.70;99.90;;;;;;5135786;27;20159;-57
2021/06/07 10:14:10;;;;;;;7.43;3.40;;;16.90;99.90;;;;;;5135424;27;20187;-55
2021/06/07 10:16:37;;;;;;;4.28;2.58;;;16.80;99.90;;;;;;5139026;27;20169;-53
2021/06/07 10:19:06;;;;;;;6.28;2.60;;;16.70;99.90;;;;;;5130594;27;20200;-56
2021/06/07 10:21:32;;;;;;;3.78;2.05;;;16.70;99.90;;;;;;5116273;27;20183;-55
2021/06/07 10:24:00;;;;;;;3.55;2.22;;;16.80;99.90;;;;;;5115265;27;20185;-56
2021/06/07 10:26:26;;;;;;;3.55;2.35;;;17.00;99.90;;;;;;5133459;27;20164;-56
2021/06/07 10:28:56;;;;;;;3.63;2.13;;;17.30;99.90;;;;;;5132577;27;20558;-51
2021/06/07 10:31:23;;;;;;;4.90;2.35;;;17.40;98.50;;;;;;5133508;27;20180;-56
2021/06/07 10:33:57;;;;;;;4.75;2.45;;;17.40;99.30;;;;;;5131561;27;20203;-55
2021/06/07 10:36:26;;;;;;;6.95;2.30;;;17.30;99.40;;;;;;5127553;27;20187;-57
2021/06/07 10:38:53;;;;;;;3.92;1.90;;;17.30;99.90;;;;;;5126342;27;20207;-55
2021/06/07 10:41:24;;;;;;;4.82;2.10;;;17.20;98.40;;;;;;5138231;27;20198;-55
2021/06/07 10:43:57;;;;;;;4.47;2.38;;;17.10;99.60;;;;;;5139246;27;20207;-56
2021/06/07 10:46:28;;;;;;;6.13;2.28;;;17.20;99.70;;;;;;5141174;27;20163;-54
2021/06/07 10:48:55;;;;;;;6.05;2.13;;;17.10;99.20;;;;;;5137350;27;20184;-55
2021/06/07 10:51:30;;;;;;;3.28;2.20;;;17.00;99.50;;;;;;5144659;27;20180;-56
2021/06/07 10:54:31;;;;;;;7.22;2.55;;;16.90;99.90;;;;;;5136750;27;20654;-55
2021/06/07 10:57:22;;;;;;;2.75;1.98;;;17.00;99.70;;;;;;5134335;27;20512;-54
2021/06/07 10:59:49;;;;;;;2.25;1.70;;;16.90;97.90;;;;;;5134326;27;20204;-53
2021/06/07 11:02:16;;;;;;;2.58;1.60;;;16.90;99.10;;;;;;5133524;27;20199;-51
2021/06/07 11:04:42;;;;;;;5.15;1.60;;;16.90;97.50;;;;;;5132761;27;20215;-52
2021/06/07 11:07:09;;;;;;;5.55;1.52;;;16.90;97.50;;;;;;5133323;27;20188;-56
2021/06/07 11:09:35;;;;;;;6.25;1.73;;;16.80;97.30;;;;;;5133291;27;20202;-58
2021/06/07 11:12:03;;;;;;;3.17;1.42;;;16.80;97.50;;;;;;5138853;27;20176;-56
2021/06/07 11:14:30;;;;;;;3.97;1.60;;;16.80;97.00;;;;;;5135411;27;20186;-57
2021/06/07 11:16:56;;;;;;;6.93;1.80;;;17.10;97.40;;;;;;5143009;27;20183;-56
2021/06/07 11:19:22;;;;;;;4.15;1.50;;;17.90;96.60;;;;;;5126056;27;20211;-57
2021/06/07 11:22:00;;;;;;;3.20;1.17;;;18.50;95.10;;;;;;5103216;27;20196;-53
2021/06/07 11:24:34;;;;;;;8.85;1.25;;;18.90;93.70;;;;;;5123165;27;20179;-56
2021/06/07 11:27:00;;;;;;;;;;;19.70;92.10;;;;;;5133541;27;20043;-57
2021/06/07 11:29:29;;;;;;;3.38;0.93;;;20.30;85.50;;;;;;5132944;27;20153;-56
2021/06/07 11:32:10;;;;;;;1.05;0.80;;;20.50;82.70;;;;;;5132805;27;20172;-56
2021/06/07 11:34:39;;;;;;;1.83;0.90;;;20.00;77.80;;;;;;5129815;27;20211;-55
2021/06/07 11:37:06;;;;;;;2.55;0.75;;;19.60;76.50;;;;;;5133450;27;20186;-54
2021/06/07 11:39:41;;;;;;;2.35;1.00;;;19.50;79.70;;;;;;5139106;27;20578;-54
2021/06/07 11:42:07;;;;;;;2.47;0.85;;;19.70;76.30;;;;;;5132938;27;20194;-54
2021/06/07 11:44:45;;;;;;;1.77;0.80;;;19.40;73.90;;;;;;5132522;27;20195;-56
2021/06/07 11:47:15;;;;;;;1.17;0.82;;;19.80;71.70;;;;;;5126470;27;20202;-54
2021/06/07 11:49:59;;;;;;;0.70;0.60;;;20.60;73.70;;;;;;5114324;27;20549;-57
2021/06/07 11:52:47;;;;;;;0.80;0.70;;;20.70;68.20;;;;;;5122944;27;20586;-56
2021/06/07 11:55:33;;;;;;;1.23;0.60;;;20.60;63.70;;;;;;5132196;27;20156;-57
2021/06/07 11:58:14;;;;;;;2.35;0.70;;;20.30;65.70;;;;;;5111976;27;20162;-56
2021/06/07 12:00:42;;;;;;;1.65;0.70;;;20.50;66.80;;;;;;5112687;27;20186;-55
2021/06/07 12:03:10;;;;;;;4.53;0.70;;;21.10;66.40;;;;;;5130282;27;20172;-54
2021/06/07 12:05:36;;;;;;;1.95;0.80;;;21.30;66.00;;;;;;5131752;27;20620;-56
2021/06/07 12:08:21;;;;;;;1.05;0.70;;;21.40;63.60;;;;;;5133154;27;20632;-57
2021/06/07 12:10:58;;;;;;;1.50;0.60;;;22.10;65.30;;;;;;5114278;27;20156;-56
2021/06/07 12:13:28;;;;;;;4.03;1.25;;;22.20;61.20;;;;;;5133321;27;20171;-57
2021/06/07 12:16:02;;;;;;;1.98;0.80;;;21.70;59.20;;;;;;5132731;28;20164;-57
2021/06/07 12:18:30;;;;;;;5.47;1.02;;;21.10;57.90;;;;;;5114002;28;20206;-57
2021/06/07 12:21:20;;;;;;;3.38;0.93;;;20.90;60.60;;;;;;5132580;27;20176;-55
2021/06/07 12:23:58;;;;;;;3.10;1.05;;;20.60;62.00;;;;;;5124416;27;20179;-56
2021/06/07 12:29:27;;;;;;;4.43;1.10;;;20.60;63.80;;;;;;5145577;27;20182;-56
2021/06/07 12:32:05;;;;;;;1.27;1.10;;;20.40;65.60;;;;;;5136146;27;20642;-57
2021/06/07 12:34:31;;;;;;;1.38;1.00;;;20.30;67.90;;;;;;5134731;27;20215;-59
2021/06/07 12:36:57;;;;;;;2.28;1.02;;;20.40;65.90;;;;;;5115618;28;20191;-59
2021/06/07 12:39:23;;;;;;;6.68;1.10;;;20.40;67.20;;;;;;5120119;27;20203;-58
2021/06/07 12:41:50;;;;;;;2.88;1.02;;;20.50;65.00;;;;;;5121169;27;20184;-57
2021/06/07 12:44:22;;;;;;;1.33;1.05;;;20.50;69.90;;;;;;5134956;27;20210;-58
2021/06/07 12:46:50;;;;;;;5.13;1.55;;;20.60;68.50;;;;;;5141680;27;20174;-55